createdAt,value
2022-11-27T00:01:29.358Z,3.99
2022-11-27T00:03:56.879Z,3.97
2022-11-27T00:06:28.110Z,4.00
2022-11-27T00:09:00.397Z,3.95
2022-11-27T00:11:30.147Z,3.92
2022-11-27T00:13:57.898Z,3.89
2022-11-27T00:16:26.204Z,3.87
2022-11-27T00:18:53.508Z,3.91
2022-11-27T00:21:24.211Z,3.90
2022-11-27T00:23:53.416Z,3.99
2022-11-27T00:26:21.797Z,4.01
2022-11-27T00:28:49.554Z,3.98
2022-11-27T00:31:29.652Z,4.03
2022-11-27T00:34:01.951Z,4.10
2022-11-27T00:36:31.028Z,4.08
2022-11-27T00:38:58.653Z,4.07
2022-11-27T00:41:28.034Z,4.09
2022-11-27T00:43:55.534Z,4.11
2022-11-27T00:46:29.319Z,4.03
2022-11-27T00:49:02.206Z,4.09
2022-11-27T00:51:30.082Z,4.03
2022-11-27T00:53:57.465Z,4.15
2022-11-27T00:56:31.364Z,4.21
2022-11-27T00:58:59.026Z,4.19
2022-11-27T01:01:30.284Z,4.17
2022-11-27T01:04:00.104Z,4.25
2022-11-27T01:06:29.219Z,4.21
2022-11-27T01:08:57.430Z,4.25
2022-11-27T01:11:31.121Z,4.27
2022-11-27T01:14:01.235Z,4.29
2022-11-27T01:16:32.827Z,4.20
2022-11-27T01:19:02.318Z,4.24
2022-11-27T01:21:32.516Z,4.32
2022-11-27T01:24:00.747Z,4.23
2022-11-27T01:26:28.273Z,4.04
2022-11-27T01:28:57.330Z,4.17
2022-11-27T01:31:27.792Z,4.28
2022-11-27T01:33:58.490Z,4.28
2022-11-27T01:36:26.861Z,4.31
2022-11-27T01:38:54.738Z,4.27
2022-11-27T01:41:27.863Z,4.27
2022-11-27T01:44:01.523Z,4.23
2022-11-27T01:46:38.503Z,4.28
2022-11-27T01:49:07.203Z,4.35
2022-11-27T01:51:37.252Z,4.43
2022-11-27T01:54:04.987Z,4.41
2022-11-27T01:56:32.392Z,4.37
2022-11-27T01:59:00.388Z,4.30
2022-11-27T02:01:27.513Z,4.37
2022-11-27T02:03:59.323Z,4.42
2022-11-27T02:06:27.134Z,4.44
2022-11-27T02:08:56.128Z,4.45
2022-11-27T02:11:26.065Z,4.45
2022-11-27T02:13:53.073Z,4.49
2022-11-27T02:17:02.160Z,4.56
2022-11-27T02:20:07.278Z,4.63
2022-11-27T02:23:19.124Z,4.62
2022-11-27T02:26:01.380Z,4.57
2022-11-27T02:28:51.246Z,4.65
2022-11-27T02:31:40.063Z,4.65
2022-11-27T02:34:29.028Z,4.74
2022-11-27T02:37:07.572Z,4.70
2022-11-27T02:39:59.736Z,4.71
2022-11-27T02:42:31.427Z,4.59
2022-11-27T02:45:10.620Z,4.62
2022-11-27T02:47:40.164Z,4.49
2022-11-27T02:50:14.745Z,4.78
2022-11-27T02:52:43.653Z,4.70
2022-11-27T02:55:16.069Z,4.68
2022-11-27T02:57:45.419Z,4.77
2022-11-27T03:00:13.678Z,4.74
2022-11-27T03:02:55.388Z,4.86
2022-11-27T03:05:26.321Z,4.92
2022-11-27T03:08:00.391Z,4.78
2022-11-27T03:10:34.336Z,4.85
2022-11-27T03:13:03.382Z,4.82
2022-11-27T03:16:09.447Z,4.87
2022-11-27T03:18:51.127Z,4.91
2022-11-27T03:21:41.615Z,4.95
2022-11-27T03:24:10.174Z,4.81
2022-11-27T03:26:38.501Z,4.75
2022-11-27T03:29:35.775Z,4.76
2022-11-27T03:32:04.482Z,4.79
2022-11-27T03:34:32.326Z,4.73
2022-11-27T03:37:00.099Z,4.79
2022-11-27T03:39:28.483Z,4.85
2022-11-27T03:42:13.189Z,4.90
2022-11-27T03:44:48.713Z,4.98
2022-11-27T03:47:37.509Z,4.95
2022-11-27T03:50:18.341Z,4.87
2022-11-27T03:53:13.276Z,4.95
2022-11-27T03:56:27.890Z,5.03
2022-11-27T03:59:02.268Z,4.97
2022-11-27T04:01:30.503Z,4.88
2022-11-27T04:03:57.814Z,4.87
2022-11-27T04:06:25.192Z,4.82
2022-11-27T04:08:52.349Z,4.78
2022-11-27T04:11:19.640Z,4.83
2022-11-27T04:13:46.745Z,4.90
2022-11-27T04:16:13.931Z,4.84
2022-11-27T04:18:41.070Z,4.89
2022-11-27T04:21:08.404Z,4.89
2022-11-27T04:23:37.806Z,4.97
2022-11-27T04:26:06.896Z,4.97
2022-11-27T04:28:34.271Z,4.95
2022-11-27T04:31:01.785Z,5.03
2022-11-27T04:33:29.265Z,4.92
2022-11-27T04:35:56.389Z,4.94
2022-11-27T04:38:23.528Z,5.03
2022-11-27T04:40:53.240Z,5.10
2022-11-27T04:43:21.144Z,5.16
2022-11-27T04:45:48.517Z,5.16
2022-11-27T04:48:15.677Z,5.19
2022-11-27T04:50:42.772Z,5.18
2022-11-27T04:53:12.388Z,5.19
2022-11-27T04:55:39.475Z,5.28
2022-11-27T04:58:06.744Z,5.22
2022-11-27T05:00:35.383Z,5.25
2022-11-27T05:03:02.570Z,5.33
2022-11-27T05:05:29.694Z,5.32
2022-11-27T05:07:57.012Z,5.33
2022-11-27T05:10:24.396Z,5.38
2022-11-27T05:12:51.795Z,4.82
2022-11-27T05:15:19.077Z,5.18
2022-11-27T05:17:46.173Z,5.49
2022-11-27T05:20:13.468Z,5.46
2022-11-27T05:22:40.536Z,5.47
2022-11-27T05:25:08.810Z,5.43
2022-11-27T05:27:36.089Z,5.31
2022-11-27T05:30:03.294Z,5.39
2022-11-27T05:32:31.766Z,5.40
2022-11-27T05:34:59.064Z,5.42
2022-11-27T05:37:27.838Z,5.40
2022-11-27T05:39:55.380Z,5.42
2022-11-27T05:42:22.684Z,5.31
2022-11-27T05:44:53.896Z,5.19
2022-11-27T05:47:24.133Z,5.06
2022-11-27T05:49:51.891Z,5.16
2022-11-27T05:52:19.106Z,5.11
2022-11-27T05:54:46.279Z,5.19
2022-11-27T05:57:13.763Z,5.15
2022-11-27T05:59:40.976Z,5.19
2022-11-27T06:02:08.406Z,5.16
2022-11-27T06:04:35.753Z,5.22
2022-11-27T06:07:03.722Z,5.26
2022-11-27T06:09:30.958Z,5.31
2022-11-27T06:11:58.738Z,5.56
2022-11-27T06:14:26.092Z,5.67
2022-11-27T06:16:53.420Z,5.63
2022-11-27T06:19:20.701Z,5.49
2022-11-27T06:21:48.119Z,5.65
2022-11-27T06:24:15.343Z,5.70
2022-11-27T06:26:43.052Z,5.58
2022-11-27T06:29:10.428Z,5.55
2022-11-27T06:31:38.585Z,5.44
2022-11-27T06:34:07.022Z,5.56
2022-11-27T06:36:37.108Z,5.47
2022-11-27T06:39:06.564Z,5.26
2022-11-27T06:41:34.916Z,5.19
2022-11-27T06:44:02.852Z,5.18
2022-11-27T06:46:30.309Z,5.24
2022-11-27T06:48:58.625Z,5.22
2022-11-27T06:51:29.620Z,5.19
2022-11-27T06:53:57.740Z,5.24
2022-11-27T06:56:28.089Z,5.24
2022-11-27T06:59:00.281Z,5.33
2022-11-27T07:01:30.724Z,5.39
2022-11-27T07:03:59.155Z,5.24
2022-11-27T07:06:27.209Z,5.27
2022-11-27T07:08:55.723Z,5.42
2022-11-27T07:11:26.075Z,5.27
2022-11-27T07:13:55.946Z,5.20
2022-11-27T07:16:23.504Z,5.10
2022-11-27T07:18:54.800Z,5.01
2022-11-27T07:21:22.177Z,5.08
2022-11-27T07:23:52.763Z,5.07
2022-11-27T07:26:22.968Z,5.20
2022-11-27T07:28:51.154Z,5.35
2022-11-27T07:31:32.506Z,5.40
2022-11-27T07:34:00.959Z,5.37
2022-11-27T07:36:30.322Z,5.49
2022-11-27T07:38:58.659Z,5.55
2022-11-27T07:41:30.485Z,5.56
2022-11-27T07:43:57.906Z,5.44
2022-11-27T07:46:26.248Z,5.53
2022-11-27T07:48:53.444Z,5.52
2022-11-27T07:51:22.892Z,5.53
2022-11-27T07:53:52.079Z,5.64
2022-11-27T07:56:20.301Z,5.74
2022-11-27T07:58:47.803Z,5.60
2022-11-27T08:01:19.083Z,5.47
2022-11-27T08:03:46.709Z,5.50
2022-11-27T08:06:20.816Z,5.45
2022-11-27T08:08:48.505Z,5.45
2022-11-27T08:11:25.482Z,5.57
2022-11-27T08:13:57.802Z,5.42
2022-11-27T08:16:25.370Z,5.53
2022-11-27T08:18:52.937Z,5.48
2022-11-27T08:21:22.042Z,5.45
2022-11-27T08:23:49.351Z,5.44
2022-11-27T08:26:16.660Z,5.45
2022-11-27T08:28:44.045Z,5.59
2022-11-27T08:31:14.735Z,5.78
2022-11-27T08:33:41.938Z,5.75
2022-11-27T08:36:14.999Z,5.89
2022-11-27T08:38:46.949Z,5.88
2022-11-27T08:41:14.574Z,5.87
2022-11-27T08:43:41.725Z,5.64
2022-11-27T08:46:10.232Z,5.76
2022-11-27T08:48:39.080Z,5.51
2022-11-27T08:51:08.847Z,5.57
2022-11-27T08:53:37.892Z,5.53
2022-11-27T08:56:10.601Z,5.60
2022-11-27T08:58:37.986Z,5.65
2022-11-27T09:01:11.051Z,5.57
2022-11-27T09:03:38.697Z,5.55
2022-11-27T09:06:17.716Z,5.70
2022-11-27T09:08:45.410Z,5.87
2022-11-27T09:11:14.844Z,6.02
2022-11-27T09:13:43.685Z,6.12
2022-11-27T09:16:14.092Z,6.34
2022-11-27T09:18:45.985Z,6.43
2022-11-27T09:21:14.976Z,6.41
2022-11-27T09:23:42.229Z,6.25
2022-11-27T09:26:14.976Z,6.05
2022-11-27T09:28:43.440Z,5.77
2022-11-27T09:31:13.391Z,5.66
2022-11-27T09:33:41.322Z,5.62
2022-11-27T09:36:12.305Z,5.70
2022-11-27T09:38:39.661Z,5.80
2022-11-27T09:41:36.736Z,5.92
2022-11-27T09:44:14.670Z,5.83
2022-11-27T09:46:44.230Z,5.71
2022-11-27T09:49:19.315Z,5.80
2022-11-27T09:51:55.285Z,6.03
2022-11-27T09:54:54.751Z,6.16
2022-11-27T09:57:37.216Z,6.00
2022-11-27T10:00:17.556Z,5.68
2022-11-27T10:02:45.515Z,5.27
2022-11-27T10:05:23.792Z,5.30
2022-11-27T10:08:28.431Z,5.33
2022-11-27T10:10:58.421Z,5.21
2022-11-27T10:13:52.726Z,5.48
2022-11-27T10:16:47.907Z,5.51
2022-11-27T10:19:18.850Z,5.62
2022-11-27T10:22:20.990Z,5.73
2022-11-27T10:25:13.045Z,5.66
2022-11-27T10:27:43.337Z,5.42
2022-11-27T10:30:17.605Z,5.22
2022-11-27T10:32:56.533Z,5.19
2022-11-27T10:35:27.315Z,5.28
2022-11-27T10:38:05.242Z,5.19
2022-11-27T10:40:48.091Z,5.17
2022-11-27T10:43:15.118Z,5.17
2022-11-27T10:45:56.724Z,5.25
2022-11-27T10:48:24.485Z,5.22
2022-11-27T10:50:51.773Z,5.25
2022-11-27T10:53:34.022Z,5.25
2022-11-27T10:56:21.798Z,5.24
2022-11-27T10:59:01.750Z,5.07
2022-11-27T11:01:41.679Z,4.98
2022-11-27T11:04:35.793Z,5.25
2022-11-27T11:06:58.595Z,5.24
2022-11-27T11:09:29.728Z,5.06
2022-11-27T11:12:17.596Z,4.93
2022-11-27T11:14:56.378Z,4.92
2022-11-27T11:17:38.520Z,4.76
2022-11-27T11:20:35.558Z,4.80
2022-11-27T11:23:02.731Z,4.59
2022-11-27T11:25:31.587Z,4.34
2022-11-27T11:27:58.787Z,4.25
2022-11-27T11:30:30.717Z,4.17
2022-11-27T11:33:04.204Z,4.25
2022-11-27T11:35:37.185Z,4.32
2022-11-27T11:38:14.441Z,4.34
2022-11-27T11:40:44.833Z,4.42
2022-11-27T11:43:30.267Z,4.40
2022-11-27T11:46:16.402Z,4.33
2022-11-27T11:48:58.226Z,4.46
2022-11-27T11:51:58.819Z,4.37
2022-11-27T11:54:38.150Z,4.35
2022-11-27T11:57:29.495Z,4.39
2022-11-27T12:00:11.515Z,4.38
2022-11-27T12:02:49.292Z,4.45
2022-11-27T12:05:32.545Z,4.66
2022-11-27T12:08:38.152Z,4.72
2022-11-27T12:11:12.850Z,4.82
2022-11-27T12:13:40.117Z,4.81
2022-11-27T12:16:35.276Z,4.74
2022-11-27T12:19:40.990Z,4.81
2022-11-27T12:22:52.561Z,4.71
2022-11-27T12:25:25.677Z,4.71
2022-11-27T12:28:11.297Z,4.62
2022-11-27T12:30:50.955Z,4.57
2022-11-27T12:33:27.236Z,4.63
2022-11-27T12:36:09.040Z,4.65
2022-11-27T12:38:40.566Z,4.60
2022-11-27T12:41:50.018Z,4.67
2022-11-27T12:44:58.553Z,4.79
2022-11-27T12:48:04.326Z,4.88
2022-11-27T12:50:44.272Z,4.89
2022-11-27T12:53:31.141Z,4.80
2022-11-27T12:56:08.574Z,5.00
2022-11-27T12:58:46.502Z,5.18
2022-11-27T13:01:40.537Z,5.07
2022-11-27T13:04:26.475Z,4.73
2022-11-27T13:07:10.460Z,4.61
2022-11-27T13:09:47.518Z,4.44
2022-11-27T13:12:24.482Z,4.60
2022-11-27T13:15:00.861Z,4.42
2022-11-27T13:17:37.085Z,4.54
2022-11-27T13:20:07.335Z,4.52
2022-11-27T13:22:36.599Z,4.26
2022-11-27T13:25:05.038Z,4.38
2022-11-27T13:27:36.896Z,4.40
2022-11-27T13:30:08.857Z,4.46
2022-11-27T13:32:49.622Z,4.54
2022-11-27T13:35:37.676Z,4.62
2022-11-27T13:38:26.809Z,4.75
2022-11-27T13:41:16.855Z,4.90
2022-11-27T13:43:47.754Z,4.79
2022-11-27T13:46:44.405Z,4.78
2022-11-27T13:49:25.330Z,4.80
2022-11-27T13:52:23.241Z,4.89
2022-11-27T13:55:01.721Z,4.77
2022-11-27T13:57:31.060Z,4.70
2022-11-27T14:00:12.157Z,4.76
2022-11-27T14:02:48.808Z,4.59
2022-11-27T14:05:19.928Z,4.54
2022-11-27T14:07:50.797Z,4.52
2022-11-27T14:10:30.847Z,4.34
2022-11-27T14:13:10.192Z,4.27
2022-11-27T14:15:38.798Z,4.30
2022-11-27T14:18:05.923Z,4.51
2022-11-27T14:20:37.312Z,4.33
2022-11-27T14:23:12.192Z,4.31
2022-11-27T14:25:41.403Z,4.39
2022-11-27T14:28:27.971Z,4.57
2022-11-27T14:31:00.310Z,4.47
2022-11-27T14:33:47.366Z,4.21
2022-11-27T14:36:26.938Z,4.40
2022-11-27T14:38:54.266Z,4.32
2022-11-27T14:41:23.896Z,4.23
2022-11-27T14:44:06.631Z,4.32
2022-11-27T14:46:37.227Z,4.30
2022-11-27T14:49:04.648Z,4.17
2022-11-27T14:51:35.252Z,4.37
2022-11-27T14:54:05.845Z,4.44
2022-11-27T14:56:40.010Z,4.61
2022-11-27T14:59:13.678Z,4.62
2022-11-27T15:01:41.121Z,4.65
2022-11-27T15:04:36.234Z,4.59
2022-11-27T15:07:27.629Z,4.52
2022-11-27T15:09:57.683Z,4.39
2022-11-27T15:12:37.110Z,4.39
2022-11-27T15:15:20.957Z,4.26
2022-11-27T15:17:54.742Z,4.19
2022-11-27T15:20:36.142Z,4.29
2022-11-27T15:23:05.766Z,4.22
2022-11-27T15:25:43.218Z,4.16
2022-11-27T15:28:37.657Z,4.04
2022-11-27T15:31:28.051Z,3.98
2022-11-27T15:33:56.526Z,4.05
2022-11-27T15:36:23.748Z,4.32
2022-11-27T15:38:51.678Z,4.35
2022-11-27T15:41:20.352Z,4.38
2022-11-27T15:43:47.505Z,4.20
2022-11-27T15:46:16.290Z,4.07
2022-11-27T15:48:43.450Z,4.04
2022-11-27T15:51:11.450Z,4.10
2022-11-27T15:53:38.733Z,4.04
2022-11-27T15:56:07.144Z,4.41
2022-11-27T15:58:34.264Z,4.38
2022-11-27T16:01:06.974Z,4.41
2022-11-27T16:03:34.602Z,4.69
2022-11-27T16:06:06.587Z,4.69
2022-11-27T16:08:33.908Z,4.79
2022-11-27T16:11:03.263Z,5.00
2022-11-27T16:13:30.854Z,4.94
2022-11-27T16:16:06.133Z,4.88
2022-11-27T16:18:34.543Z,4.76
2022-11-27T16:21:04.028Z,4.58
2022-11-27T16:23:31.636Z,4.57
2022-11-27T16:25:59.930Z,4.75
2022-11-27T16:28:34.638Z,4.74
2022-11-27T16:31:07.310Z,4.66
2022-11-27T16:33:35.031Z,4.70
2022-11-27T16:36:07.931Z,4.72
2022-11-27T16:38:35.545Z,4.83
2022-11-27T16:41:10.882Z,4.92
2022-11-27T16:43:45.533Z,4.87
2022-11-27T16:46:20.063Z,4.76
2022-11-27T16:48:49.984Z,5.07
2022-11-27T16:51:20.281Z,5.00
2022-11-27T16:53:49.909Z,5.09
2022-11-27T16:56:19.880Z,5.27
2022-11-27T16:58:48.367Z,5.38
2022-11-27T17:01:22.648Z,5.38
2022-11-27T17:03:51.330Z,5.22
2022-11-27T17:06:26.070Z,5.00
2022-11-27T17:08:58.042Z,4.81
2022-11-27T17:11:29.208Z,4.70
2022-11-27T17:13:58.403Z,4.72
2022-11-27T17:16:26.023Z,4.68
2022-11-27T17:18:53.766Z,4.70
2022-11-27T17:21:30.972Z,4.69
2022-11-27T17:24:04.486Z,4.56
2022-11-27T17:26:42.495Z,4.49
2022-11-27T17:29:11.834Z,4.67
2022-11-27T17:31:39.146Z,4.81
2022-11-27T17:34:08.492Z,4.85
2022-11-27T17:36:37.478Z,4.78
2022-11-27T17:39:06.708Z,4.85
2022-11-27T17:41:34.834Z,4.98
2022-11-27T17:44:08.369Z,5.02
2022-11-27T17:46:37.202Z,4.87
2022-11-27T17:49:07.227Z,5.02
2022-11-27T17:51:36.964Z,4.95
2022-11-27T17:54:06.306Z,4.75
2022-11-27T17:56:35.827Z,4.80
2022-11-27T17:59:03.416Z,5.06
2022-11-27T18:01:31.370Z,5.27
2022-11-27T18:04:01.255Z,4.91
2022-11-27T18:06:32.007Z,5.05
2022-11-27T18:09:02.028Z,4.94
2022-11-27T18:11:32.771Z,4.76
2022-11-27T18:14:00.893Z,4.55
2022-11-27T18:16:37.670Z,4.19
2022-11-27T18:19:08.635Z,4.52
2022-11-27T18:21:37.080Z,4.71
2022-11-27T18:27:11.540Z,4.81
2022-11-27T18:29:42.514Z,4.66
2022-11-27T18:32:11.773Z,4.47
2022-11-27T18:34:39.745Z,4.58
2022-11-27T18:37:07.887Z,4.32
2022-11-27T18:39:36.593Z,4.38
2022-11-27T18:42:05.303Z,4.13
2022-11-27T18:44:37.270Z,4.08
2022-11-27T18:47:10.662Z,3.94
2022-11-27T18:49:39.389Z,4.06
2022-11-27T18:52:07.418Z,3.97
2022-11-27T18:54:36.533Z,3.93
2022-11-27T18:57:06.372Z,4.19
2022-11-27T18:59:34.967Z,4.13
2022-11-27T19:02:03.923Z,3.97
2022-11-27T19:04:31.282Z,4.11
2022-11-27T19:06:58.516Z,4.09
2022-11-27T19:09:26.290Z,4.01
2022-11-27T19:11:54.026Z,4.02
2022-11-27T19:14:21.305Z,4.19
2022-11-27T19:16:48.717Z,3.91
2022-11-27T19:19:53.475Z,4.12
2022-11-27T19:22:14.877Z,4.00
2022-11-27T19:24:42.634Z,4.07
2022-11-27T19:27:09.900Z,3.98
2022-11-27T19:29:37.146Z,3.82
2022-11-27T19:32:04.663Z,3.90
2022-11-27T19:34:31.820Z,3.85
2022-11-27T19:36:59.196Z,3.65
2022-11-27T19:39:27.419Z,3.63
2022-11-27T19:41:55.044Z,3.40
2022-11-27T19:44:23.661Z,3.61
2022-11-27T19:46:50.968Z,3.61
2022-11-27T19:49:19.640Z,3.75
2022-11-27T19:51:48.148Z,3.70
2022-11-27T19:54:17.063Z,3.52
2022-11-27T19:56:44.382Z,3.48
2022-11-27T19:59:13.058Z,3.52
2022-11-27T20:01:41.650Z,3.61
2022-11-27T20:04:12.155Z,3.48
2022-11-27T20:06:40.023Z,3.66
2022-11-27T20:09:07.994Z,3.83
2022-11-27T20:11:36.792Z,3.83
2022-11-27T20:14:05.777Z,3.87
2022-11-27T20:16:35.188Z,3.79
2022-11-27T20:19:05.940Z,3.88
2022-11-27T20:21:35.868Z,3.82
2022-11-27T20:24:04.254Z,3.84
2022-11-27T20:26:32.810Z,3.99
2022-11-27T20:29:00.576Z,4.04
2022-11-27T20:31:37.948Z,4.00
2022-11-27T20:34:06.880Z,3.99
2022-11-27T20:36:38.293Z,3.93
2022-11-27T20:39:05.540Z,3.85
2022-11-27T20:41:34.287Z,3.88
2022-11-27T20:44:02.524Z,3.80
2022-11-27T20:46:34.081Z,3.75
2022-11-27T20:49:01.712Z,3.55
2022-11-27T20:51:33.864Z,3.73
2022-11-27T20:54:09.363Z,3.65
2022-11-27T20:56:37.368Z,3.55
2022-11-27T20:59:07.005Z,3.48
2022-11-27T21:01:36.345Z,3.48
2022-11-27T21:04:10.164Z,3.62
2022-11-27T21:06:43.422Z,3.49
2022-11-27T21:09:14.094Z,3.56
2022-11-27T21:11:42.323Z,3.75
2022-11-27T21:14:12.342Z,3.92
2022-11-27T21:16:42.881Z,4.01
2022-11-27T21:19:27.583Z,4.28
2022-11-27T21:21:56.817Z,4.26
2022-11-27T21:24:28.040Z,4.27
2022-11-27T21:26:56.181Z,4.02
2022-11-27T21:29:25.912Z,3.98
2022-11-27T21:31:55.344Z,3.85
2022-11-27T21:34:23.870Z,3.63
2022-11-27T21:36:51.143Z,3.66
2022-11-27T21:39:21.794Z,3.55
2022-11-27T21:41:50.917Z,3.69
2022-11-27T21:44:20.021Z,3.68
2022-11-27T21:46:48.414Z,3.82
2022-11-27T21:49:18.452Z,3.82
2022-11-27T21:51:46.093Z,3.82
2022-11-27T21:54:15.017Z,3.76
2022-11-27T21:56:42.163Z,3.76
2022-11-27T21:59:12.746Z,3.75
2022-11-27T22:01:40.421Z,3.72
2022-11-27T22:04:07.760Z,3.82
2022-11-27T22:06:40.587Z,3.85
2022-11-27T22:09:11.986Z,3.78
2022-11-27T22:11:42.842Z,3.65
2022-11-27T22:14:10.168Z,3.74
2022-11-27T22:16:44.794Z,3.68
2022-11-27T22:19:14.404Z,3.72
2022-11-27T22:21:42.987Z,3.71
2022-11-27T22:24:16.736Z,3.87
2022-11-27T22:26:47.191Z,3.81
2022-11-27T22:29:14.293Z,3.52
2022-11-27T22:31:41.702Z,3.54
2022-11-27T22:34:08.808Z,3.43
2022-11-27T22:36:36.205Z,3.26
2022-11-27T22:39:07.408Z,3.24
2022-11-27T22:41:36.956Z,3.27
2022-11-27T22:44:09.741Z,3.24
2022-11-27T22:46:41.226Z,3.23
2022-11-27T22:49:11.199Z,3.32
2022-11-27T22:51:39.218Z,3.34
2022-11-27T22:54:09.967Z,3.36
2022-11-27T22:56:38.804Z,3.28
2022-11-27T22:59:31.148Z,3.23
2022-11-27T23:01:54.722Z,3.21
2022-11-27T23:04:22.219Z,3.38
2022-11-27T23:06:49.534Z,3.33
2022-11-27T23:09:18.965Z,3.31
2022-11-27T23:11:46.818Z,3.22
2022-11-27T23:14:14.168Z,3.16
2022-11-27T23:16:41.597Z,3.13
2022-11-27T23:19:09.501Z,3.39
2022-11-27T23:21:39.110Z,3.29
2022-11-27T23:24:08.925Z,3.36
2022-11-27T23:26:36.396Z,3.28
2022-11-27T23:29:03.945Z,3.17
2022-11-27T23:31:35.381Z,3.02
2022-11-27T23:34:07.588Z,3.07
2022-11-27T23:36:35.741Z,3.15
2022-11-27T23:39:06.176Z,3.18
2022-11-27T23:41:33.742Z,2.98
2022-11-27T23:44:01.692Z,3.09
2022-11-27T23:46:30.479Z,3.02
2022-11-27T23:48:59.821Z,3.01
2022-11-27T23:51:30.203Z,3.09
2022-11-27T23:53:57.883Z,3.02
2022-11-27T23:56:27.569Z,2.99
2022-11-27T23:58:56.214Z,2.87
